sensor_id;sensor_type;location;lat;lon;timestamp;P1;durP1;ratioP1;P2;durP2;ratioP2
31238;SDS011;17871;31.584;74.450;2023-02-28T00:01:55;57.58;;;24.73;;
31238;SDS011;17871;31.584;74.450;2023-02-28T00:04:24;58.97;;;27.98;;
31238;SDS011;17871;31.584;74.450;2023-02-28T00:06:53;52.95;;;24.23;;
31238;SDS011;17871;31.584;74.450;2023-02-28T00:09:22;64.35;;;26.67;;
31238;SDS011;17871;31.584;74.450;2023-02-28T00:11:51;63.10;;;28.38;;
31238;SDS011;17871;31.584;74.450;2023-02-28T00:14:20;57.97;;;22.58;;
31238;SDS011;17871;31.584;74.450;2023-02-28T00:16:49;71.50;;;28.67;;
31238;SDS011;17871;31.584;74.450;2023-02-28T00:19:18;80.05;;;30.77;;
31238;SDS011;17871;31.584;74.450;2023-02-28T00:21:47;64.88;;;23.73;;
31238;SDS011;17871;31.584;74.450;2023-02-28T00:24:16;71.60;;;23.52;;
31238;SDS011;17871;31.584;74.450;2023-02-28T00:26:45;67.22;;;25.88;;
31238;SDS011;17871;31.584;74.450;2023-02-28T00:29:14;79.82;;;32.85;;
31238;SDS011;17871;31.584;74.450;2023-02-28T00:31:43;75.45;;;32.33;;
31238;SDS011;17871;31.584;74.450;2023-02-28T00:34:12;62.28;;;23.65;;
31238;SDS011;17871;31.584;74.450;2023-02-28T00:36:41;62.15;;;25.58;;
31238;SDS011;17871;31.584;74.450;2023-02-28T00:39:13;61.78;;;29.13;;
31238;SDS011;17871;31.584;74.450;2023-02-28T00:41:42;61.05;;;26.73;;
31238;SDS011;17871;31.584;74.450;2023-02-28T00:44:13;64.93;;;28.60;;
31238;SDS011;17871;31.584;74.450;2023-02-28T00:46:42;69.10;;;31.02;;
31238;SDS011;17871;31.584;74.450;2023-02-28T00:49:11;65.63;;;30.48;;
31238;SDS011;17871;31.584;74.450;2023-02-28T00:51:41;70.82;;;29.95;;
31238;SDS011;17871;31.584;74.450;2023-02-28T00:54:10;88.70;;;38.25;;
31238;SDS011;17871;31.584;74.450;2023-02-28T00:56:39;83.47;;;34.58;;
31238;SDS011;17871;31.584;74.450;2023-02-28T00:59:08;98.25;;;38.10;;
31238;SDS011;17871;31.584;74.450;2023-02-28T01:01:39;71.25;;;30.75;;
31238;SDS011;17871;31.584;74.450;2023-02-28T01:04:14;57.40;;;26.30;;
31238;SDS011;17871;31.584;74.450;2023-02-28T01:06:45;98.60;;;36.70;;
31238;SDS011;17871;31.584;74.450;2023-02-28T01:09:16;111.28;;;38.70;;
31238;SDS011;17871;31.584;74.450;2023-02-28T01:11:46;92.30;;;37.38;;
31238;SDS011;17871;31.584;74.450;2023-02-28T01:14:17;72.55;;;34.10;;
31238;SDS011;17871;31.584;74.450;2023-02-28T01:16:48;82.15;;;38.17;;
31238;SDS011;17871;31.584;74.450;2023-02-28T01:19:18;78.25;;;38.78;;
31238;SDS011;17871;31.584;74.450;2023-02-28T01:21:49;86.22;;;39.67;;
31238;SDS011;17871;31.584;74.450;2023-02-28T01:24:19;78.15;;;40.03;;
31238;SDS011;17871;31.584;74.450;2023-02-28T01:26:49;78.28;;;41.28;;
31238;SDS011;17871;31.584;74.450;2023-02-28T01:29:20;72.38;;;36.38;;
31238;SDS011;17871;31.584;74.450;2023-02-28T01:31:52;69.90;;;33.03;;
31238;SDS011;17871;31.584;74.450;2023-02-28T01:34:22;55.65;;;30.58;;
31238;SDS011;17871;31.584;74.450;2023-02-28T01:36:51;47.70;;;27.83;;
31238;SDS011;17871;31.584;74.450;2023-02-28T01:39:21;55.35;;;25.05;;
31238;SDS011;17871;31.584;74.450;2023-02-28T01:41:51;43.55;;;23.27;;
31238;SDS011;17871;31.584;74.450;2023-02-28T01:45:14;52.42;;;25.67;;
31238;SDS011;17871;31.584;74.450;2023-02-28T01:47:34;54.33;;;27.98;;
31238;SDS011;17871;31.584;74.450;2023-02-28T01:50:09;62.40;;;32.78;;
31238;SDS011;17871;31.584;74.450;2023-02-28T01:52:44;72.45;;;34.65;;
31238;SDS011;17871;31.584;74.450;2023-02-28T01:55:16;64.10;;;33.55;;
31238;SDS011;17871;31.584;74.450;2023-02-28T01:57:50;43.08;;;25.92;;
31238;SDS011;17871;31.584;74.450;2023-02-28T02:00:27;47.47;;;24.30;;
31238;SDS011;17871;31.584;74.450;2023-02-28T02:03:08;51.42;;;26.83;;
31238;SDS011;17871;31.584;74.450;2023-02-28T02:05:43;58.00;;;27.38;;
31238;SDS011;17871;31.584;74.450;2023-02-28T02:08:19;66.22;;;32.30;;
31238;SDS011;17871;31.584;74.450;2023-02-28T02:10:59;60.17;;;27.58;;
31238;SDS011;17871;31.584;74.450;2023-02-28T02:13:42;62.22;;;26.48;;
31238;SDS011;17871;31.584;74.450;2023-02-28T02:16:52;43.70;;;22.83;;
31238;SDS011;17871;31.584;74.450;2023-02-28T02:25:45;36.15;;;18.15;;
31238;SDS011;17871;31.584;74.450;2023-02-28T02:31:18;25.98;;;15.27;;
31238;SDS011;17871;31.584;74.450;2023-02-28T02:36:58;31.95;;;17.13;;
31238;SDS011;17871;31.584;74.450;2023-02-28T02:39:46;29.83;;;16.40;;
31238;SDS011;17871;31.584;74.450;2023-02-28T02:42:29;31.65;;;15.68;;
31238;SDS011;17871;31.584;74.450;2023-02-28T02:45:17;29.52;;;16.65;;
31238;SDS011;17871;31.584;74.450;2023-02-28T02:47:55;28.80;;;14.95;;
31238;SDS011;17871;31.584;74.450;2023-02-28T02:50:31;27.52;;;14.32;;
31238;SDS011;17871;31.584;74.450;2023-02-28T02:53:06;30.20;;;14.65;;
31238;SDS011;17871;31.584;74.450;2023-02-28T02:55:39;30.33;;;14.57;;
31238;SDS011;17871;31.584;74.450;2023-02-28T02:58:16;32.90;;;15.98;;
31238;SDS011;17871;31.584;74.450;2023-02-28T03:00:53;33.47;;;17.00;;
31238;SDS011;17871;31.584;74.450;2023-02-28T03:03:27;28.33;;;15.57;;
31238;SDS011;17871;31.584;74.450;2023-02-28T03:05:59;28.30;;;14.20;;
31238;SDS011;17871;31.584;74.450;2023-02-28T03:08:33;26.08;;;13.80;;
31238;SDS011;17871;31.584;74.450;2023-02-28T03:11:06;27.55;;;14.73;;
31238;SDS011;17871;31.584;74.450;2023-02-28T03:19:30;21.55;;;10.10;;
31238;SDS011;17871;31.584;74.450;2023-02-28T03:25:07;26.48;;;11.85;;
31238;SDS011;17871;31.584;74.450;2023-02-28T03:28:18;27.48;;;14.63;;
31238;SDS011;17871;31.584;74.450;2023-02-28T03:31:21;24.95;;;12.05;;
31238;SDS011;17871;31.584;74.450;2023-02-28T03:34:33;29.42;;;15.25;;
31238;SDS011;17871;31.584;74.450;2023-02-28T03:37:09;22.30;;;13.68;;
31238;SDS011;17871;31.584;74.450;2023-02-28T03:39:45;23.70;;;13.88;;
31238;SDS011;17871;31.584;74.450;2023-02-28T03:42:21;27.45;;;13.30;;
31238;SDS011;17871;31.584;74.450;2023-02-28T03:44:58;23.40;;;13.30;;
31238;SDS011;17871;31.584;74.450;2023-02-28T03:50:24;37.72;;;16.08;;
31238;SDS011;17871;31.584;74.450;2023-02-28T03:55:47;34.60;;;15.27;;
31238;SDS011;17871;31.584;74.450;2023-02-28T03:58:43;34.60;;;19.40;;
31238;SDS011;17871;31.584;74.450;2023-02-28T04:01:12;38.63;;;18.45;;
31238;SDS011;17871;31.584;74.450;2023-02-28T04:03:53;42.28;;;18.25;;
31238;SDS011;17871;31.584;74.450;2023-02-28T04:06:23;33.15;;;16.05;;
31238;SDS011;17871;31.584;74.450;2023-02-28T04:08:53;26.23;;;13.07;;
31238;SDS011;17871;31.584;74.450;2023-02-28T04:11:24;24.05;;;12.07;;
31238;SDS011;17871;31.584;74.450;2023-02-28T04:14:04;28.05;;;11.63;;
31238;SDS011;17871;31.584;74.450;2023-02-28T04:16:35;27.27;;;13.10;;
31238;SDS011;17871;31.584;74.450;2023-02-28T04:19:09;32.58;;;12.77;;
31238;SDS011;17871;31.584;74.450;2023-02-28T04:21:42;40.17;;;12.43;;
31238;SDS011;17871;31.584;74.450;2023-02-28T04:24:23;34.33;;;13.80;;
31238;SDS011;17871;31.584;74.450;2023-02-28T04:26:57;41.53;;;14.35;;
31238;SDS011;17871;31.584;74.450;2023-02-28T04:29:28;23.38;;;13.02;;
31238;SDS011;17871;31.584;74.450;2023-02-28T04:32:00;67.72;;;36.97;;
31238;SDS011;17871;31.584;74.450;2023-02-28T04:34:31;54.45;;;28.20;;
31238;SDS011;17871;31.584;74.450;2023-02-28T04:37:00;37.17;;;16.60;;
31238;SDS011;17871;31.584;74.450;2023-02-28T04:39:40;28.70;;;13.48;;
31238;SDS011;17871;31.584;74.450;2023-02-28T04:42:10;24.65;;;13.55;;
31238;SDS011;17871;31.584;74.450;2023-02-28T04:44:40;17.77;;;11.30;;
31238;SDS011;17871;31.584;74.450;2023-02-28T04:47:09;27.10;;;12.82;;
31238;SDS011;17871;31.584;74.450;2023-02-28T04:49:38;22.48;;;11.82;;
31238;SDS011;17871;31.584;74.450;2023-02-28T04:52:09;26.95;;;13.68;;
31238;SDS011;17871;31.584;74.450;2023-02-28T04:54:38;43.88;;;22.70;;
31238;SDS011;17871;31.584;74.450;2023-02-28T04:57:07;26.92;;;14.80;;
31238;SDS011;17871;31.584;74.450;2023-02-28T04:59:36;28.73;;;14.57;;
31238;SDS011;17871;31.584;74.450;2023-02-28T05:02:05;27.10;;;13.32;;
31238;SDS011;17871;31.584;74.450;2023-02-28T05:04:34;28.58;;;14.98;;
31238;SDS011;17871;31.584;74.450;2023-02-28T05:07:04;30.52;;;14.65;;
31238;SDS011;17871;31.584;74.450;2023-02-28T05:09:33;23.98;;;10.40;;
31238;SDS011;17871;31.584;74.450;2023-02-28T05:12:02;23.70;;;10.48;;
31238;SDS011;17871;31.584;74.450;2023-02-28T05:14:31;24.55;;;11.98;;
31238;SDS011;17871;31.584;74.450;2023-02-28T05:17:00;21.85;;;11.07;;
31238;SDS011;17871;31.584;74.450;2023-02-28T05:19:29;27.20;;;11.07;;
31238;SDS011;17871;31.584;74.450;2023-02-28T05:21:58;19.50;;;10.80;;
31238;SDS011;17871;31.584;74.450;2023-02-28T05:24:27;20.92;;;10.30;;
31238;SDS011;17871;31.584;74.450;2023-02-28T05:26:56;17.52;;;10.18;;
31238;SDS011;17871;31.584;74.450;2023-02-28T05:29:25;23.77;;;11.57;;
31238;SDS011;17871;31.584;74.450;2023-02-28T05:31:54;28.55;;;12.20;;
31238;SDS011;17871;31.584;74.450;2023-02-28T05:34:23;23.30;;;10.40;;
31238;SDS011;17871;31.584;74.450;2023-02-28T05:36:52;25.50;;;12.55;;
31238;SDS011;17871;31.584;74.450;2023-02-28T05:39:21;28.85;;;10.95;;
31238;SDS011;17871;31.584;74.450;2023-02-28T05:41:50;24.05;;;12.40;;
31238;SDS011;17871;31.584;74.450;2023-02-28T05:44:19;26.35;;;11.55;;
31238;SDS011;17871;31.584;74.450;2023-02-28T05:46:48;24.25;;;15.63;;
31238;SDS011;17871;31.584;74.450;2023-02-28T05:49:17;28.40;;;11.85;;
31238;SDS011;17871;31.584;74.450;2023-02-28T05:51:46;21.20;;;10.15;;
31238;SDS011;17871;31.584;74.450;2023-02-28T05:54:15;22.67;;;10.75;;
31238;SDS011;17871;31.584;74.450;2023-02-28T05:56:44;22.52;;;9.27;;
31238;SDS011;17871;31.584;74.450;2023-02-28T05:59:13;24.52;;;9.05;;
31238;SDS011;17871;31.584;74.450;2023-02-28T06:01:43;30.42;;;9.23;;
31238;SDS011;17871;31.584;74.450;2023-02-28T06:04:17;18.33;;;8.90;;
31238;SDS011;17871;31.584;74.450;2023-02-28T06:06:58;23.65;;;10.27;;
31238;SDS011;17871;31.584;74.450;2023-02-28T06:09:27;20.88;;;9.98;;
31238;SDS011;17871;31.584;74.450;2023-02-28T06:11:59;25.90;;;10.27;;
31238;SDS011;17871;31.584;74.450;2023-02-28T06:14:32;19.38;;;9.75;;
31238;SDS011;17871;31.584;74.450;2023-02-28T06:17:02;29.08;;;11.10;;
31238;SDS011;17871;31.584;74.450;2023-02-28T06:19:32;33.92;;;11.93;;
31238;SDS011;17871;31.584;74.450;2023-02-28T06:22:01;42.70;;;12.02;;
31238;SDS011;17871;31.584;74.450;2023-02-28T06:24:30;28.50;;;11.25;;
31238;SDS011;17871;31.584;74.450;2023-02-28T06:26:59;27.98;;;9.07;;
31238;SDS011;17871;31.584;74.450;2023-02-28T06:29:36;22.75;;;8.82;;
31238;SDS011;17871;31.584;74.450;2023-02-28T06:32:07;21.15;;;9.02;;
31238;SDS011;17871;31.584;74.450;2023-02-28T06:34:37;18.70;;;8.43;;
31238;SDS011;17871;31.584;74.450;2023-02-28T06:37:06;20.20;;;7.72;;
31238;SDS011;17871;31.584;74.450;2023-02-28T06:39:35;23.50;;;7.18;;
31238;SDS011;17871;31.584;74.450;2023-02-28T06:42:04;17.25;;;6.28;;
31238;SDS011;17871;31.584;74.450;2023-02-28T06:44:33;21.98;;;6.07;;
31238;SDS011;17871;31.584;74.450;2023-02-28T06:47:06;27.73;;;7.38;;
31238;SDS011;17871;31.584;74.450;2023-02-28T06:49:35;35.55;;;6.88;;
31238;SDS011;17871;31.584;74.450;2023-02-28T06:52:04;20.88;;;6.25;;
31238;SDS011;17871;31.584;74.450;2023-02-28T06:54:33;21.40;;;6.82;;
31238;SDS011;17871;31.584;74.450;2023-02-28T06:57:04;18.98;;;6.35;;
31238;SDS011;17871;31.584;74.450;2023-02-28T06:59:33;29.77;;;7.82;;
31238;SDS011;17871;31.584;74.450;2023-02-28T07:02:03;23.17;;;7.80;;
31238;SDS011;17871;31.584;74.450;2023-02-28T07:04:34;24.77;;;8.23;;
31238;SDS011;17871;31.584;74.450;2023-02-28T07:07:03;23.13;;;7.40;;
31238;SDS011;17871;31.584;74.450;2023-02-28T07:09:32;25.88;;;6.90;;
31238;SDS011;17871;31.584;74.450;2023-02-28T07:12:01;18.08;;;7.75;;
31238;SDS011;17871;31.584;74.450;2023-02-28T07:14:30;16.25;;;8.35;;
31238;SDS011;17871;31.584;74.450;2023-02-28T07:16:59;22.65;;;8.18;;
31238;SDS011;17871;31.584;74.450;2023-02-28T07:19:29;20.02;;;7.43;;
31238;SDS011;17871;31.584;74.450;2023-02-28T07:21:58;17.42;;;7.63;;
31238;SDS011;17871;31.584;74.450;2023-02-28T07:24:27;28.52;;;9.85;;
31238;SDS011;17871;31.584;74.450;2023-02-28T07:26:57;22.70;;;7.85;;
31238;SDS011;17871;31.584;74.450;2023-02-28T07:29:27;21.70;;;10.35;;
31238;SDS011;17871;31.584;74.450;2023-02-28T07:31:56;19.77;;;8.88;;
31238;SDS011;17871;31.584;74.450;2023-02-28T07:34:26;27.88;;;8.45;;
31238;SDS011;17871;31.584;74.450;2023-02-28T07:36:55;23.67;;;9.68;;
31238;SDS011;17871;31.584;74.450;2023-02-28T07:39:24;19.13;;;10.80;;
31238;SDS011;17871;31.584;74.450;2023-02-28T07:41:53;25.40;;;10.77;;
31238;SDS011;17871;31.584;74.450;2023-02-28T07:44:25;23.15;;;11.05;;
31238;SDS011;17871;31.584;74.450;2023-02-28T07:46:55;16.90;;;9.30;;
31238;SDS011;17871;31.584;74.450;2023-02-28T07:49:24;20.30;;;10.38;;
31238;SDS011;17871;31.584;74.450;2023-02-28T07:51:53;19.55;;;10.82;;
31238;SDS011;17871;31.584;74.450;2023-02-28T07:54:22;20.60;;;12.55;;
31238;SDS011;17871;31.584;74.450;2023-02-28T07:56:51;25.13;;;11.85;;
31238;SDS011;17871;31.584;74.450;2023-02-28T07:59:20;26.23;;;10.70;;
31238;SDS011;17871;31.584;74.450;2023-02-28T08:01:49;15.98;;;9.65;;
31238;SDS011;17871;31.584;74.450;2023-02-28T08:04:18;28.90;;;12.38;;
31238;SDS011;17871;31.584;74.450;2023-02-28T08:06:47;22.77;;;11.00;;
31238;SDS011;17871;31.584;74.450;2023-02-28T08:09:20;20.60;;;10.05;;
31238;SDS011;17871;31.584;74.450;2023-02-28T08:11:48;20.65;;;10.15;;
31238;SDS011;17871;31.584;74.450;2023-02-28T08:14:17;23.15;;;11.52;;
31238;SDS011;17871;31.584;74.450;2023-02-28T08:16:46;16.98;;;9.50;;
31238;SDS011;17871;31.584;74.450;2023-02-28T08:19:16;20.38;;;8.25;;
31238;SDS011;17871;31.584;74.450;2023-02-28T08:21:59;26.77;;;10.68;;
31238;SDS011;17871;31.584;74.450;2023-02-28T08:24:28;22.73;;;10.20;;
31238;SDS011;17871;31.584;74.450;2023-02-28T08:26:57;23.73;;;8.93;;
31238;SDS011;17871;31.584;74.450;2023-02-28T08:29:26;15.25;;;8.10;;
31238;SDS011;17871;31.584;74.450;2023-02-28T08:31:55;16.27;;;8.23;;
31238;SDS011;17871;31.584;74.450;2023-02-28T08:34:25;23.70;;;9.50;;
31238;SDS011;17871;31.584;74.450;2023-02-28T08:36:53;16.17;;;8.57;;
31238;SDS011;17871;31.584;74.450;2023-02-28T08:39:22;21.73;;;8.32;;
31238;SDS011;17871;31.584;74.450;2023-02-28T08:41:52;18.45;;;8.15;;
31238;SDS011;17871;31.584;74.450;2023-02-28T08:44:33;16.55;;;8.35;;
31238;SDS011;17871;31.584;74.450;2023-02-28T08:47:02;16.33;;;7.95;;
31238;SDS011;17871;31.584;74.450;2023-02-28T08:49:32;19.05;;;9.52;;
31238;SDS011;17871;31.584;74.450;2023-02-28T08:52:00;20.00;;;9.85;;
31238;SDS011;17871;31.584;74.450;2023-02-28T08:54:30;20.55;;;7.95;;
31238;SDS011;17871;31.584;74.450;2023-02-28T08:57:00;24.80;;;8.63;;
31238;SDS011;17871;31.584;74.450;2023-02-28T08:59:29;14.15;;;8.35;;
31238;SDS011;17871;31.584;74.450;2023-02-28T09:01:58;17.45;;;8.05;;
31238;SDS011;17871;31.584;74.450;2023-02-28T09:04:28;19.48;;;8.23;;
31238;SDS011;17871;31.584;74.450;2023-02-28T09:07:00;21.67;;;7.50;;
31238;SDS011;17871;31.584;74.450;2023-02-28T09:09:29;33.13;;;8.60;;
31238;SDS011;17871;31.584;74.450;2023-02-28T09:11:58;17.73;;;7.38;;
31238;SDS011;17871;31.584;74.450;2023-02-28T09:14:27;19.70;;;6.55;;
31238;SDS011;17871;31.584;74.450;2023-02-28T09:16:56;19.10;;;7.05;;
31238;SDS011;17871;31.584;74.450;2023-02-28T09:19:26;21.38;;;7.60;;
31238;SDS011;17871;31.584;74.450;2023-02-28T09:21:55;18.42;;;7.80;;
31238;SDS011;17871;31.584;74.450;2023-02-28T09:24:24;15.90;;;7.15;;
31238;SDS011;17871;31.584;74.450;2023-02-28T09:26:53;21.13;;;7.15;;
31238;SDS011;17871;31.584;74.450;2023-02-28T09:29:32;26.80;;;8.93;;
31238;SDS011;17871;31.584;74.450;2023-02-28T09:32:02;71.05;;;11.18;;
31238;SDS011;17871;31.584;74.450;2023-02-28T09:34:33;16.65;;;6.18;;
31238;SDS011;17871;31.584;74.450;2023-02-28T09:37:07;55.45;;;8.13;;
31238;SDS011;17871;31.584;74.450;2023-02-28T09:39:36;28.90;;;6.35;;
31238;SDS011;17871;31.584;74.450;2023-02-28T09:42:05;13.00;;;5.80;;
31238;SDS011;17871;31.584;74.450;2023-02-28T09:44:43;15.63;;;6.75;;
31238;SDS011;17871;31.584;74.450;2023-02-28T09:47:24;21.80;;;6.53;;
31238;SDS011;17871;31.584;74.450;2023-02-28T09:50:17;19.85;;;8.18;;
31238;SDS011;17871;31.584;74.450;2023-02-28T09:53:10;25.58;;;7.55;;
31238;SDS011;17871;31.584;74.450;2023-02-28T09:56:04;28.40;;;8.10;;
31238;SDS011;17871;31.584;74.450;2023-02-28T09:58:40;23.70;;;8.07;;
31238;SDS011;17871;31.584;74.450;2023-02-28T10:10:24;14.63;;;6.35;;
31238;SDS011;17871;31.584;74.450;2023-02-28T10:12:59;32.78;;;9.50;;
31238;SDS011;17871;31.584;74.450;2023-02-28T10:15:34;12.40;;;6.85;;
31238;SDS011;17871;31.584;74.450;2023-02-28T10:18:06;20.52;;;10.68;;
31238;SDS011;17871;31.584;74.450;2023-02-28T10:20:43;27.38;;;8.55;;
31238;SDS011;17871;31.584;74.450;2023-02-28T10:23:28;26.83;;;8.40;;
31238;SDS011;17871;31.584;74.450;2023-02-28T10:26:20;23.02;;;9.32;;
31238;SDS011;17871;31.584;74.450;2023-02-28T10:28:52;22.38;;;9.15;;
31238;SDS011;17871;31.584;74.450;2023-02-28T10:31:21;19.13;;;6.60;;
31238;SDS011;17871;31.584;74.450;2023-02-28T10:33:52;20.83;;;6.60;;
31238;SDS011;17871;31.584;74.450;2023-02-28T10:36:21;37.55;;;8.32;;
31238;SDS011;17871;31.584;74.450;2023-02-28T10:38:51;30.75;;;8.68;;
31238;SDS011;17871;31.584;74.450;2023-02-28T10:41:27;24.52;;;6.25;;
31238;SDS011;17871;31.584;74.450;2023-02-28T10:44:36;16.92;;;6.07;;
31238;SDS011;17871;31.584;74.450;2023-02-28T10:46:57;13.07;;;6.32;;
31238;SDS011;17871;31.584;74.450;2023-02-28T10:49:28;15.20;;;6.60;;
31238;SDS011;17871;31.584;74.450;2023-02-28T10:51:58;15.07;;;6.18;;
31238;SDS011;17871;31.584;74.450;2023-02-28T10:54:33;17.70;;;6.00;;
31238;SDS011;17871;31.584;74.450;2023-02-28T10:57:16;30.45;;;6.47;;
31238;SDS011;17871;31.584;74.450;2023-02-28T10:59:52;19.00;;;5.68;;
31238;SDS011;17871;31.584;74.450;2023-02-28T11:02:34;13.80;;;5.93;;
31238;SDS011;17871;31.584;74.450;2023-02-28T11:05:24;17.73;;;5.88;;
31238;SDS011;17871;31.584;74.450;2023-02-28T11:08:19;13.70;;;6.88;;
31238;SDS011;17871;31.584;74.450;2023-02-28T11:10:53;22.30;;;7.05;;
31238;SDS011;17871;31.584;74.450;2023-02-28T11:13:35;18.80;;;8.00;;
31238;SDS011;17871;31.584;74.450;2023-02-28T11:16:09;29.67;;;8.93;;
31238;SDS011;17871;31.584;74.450;2023-02-28T11:21:16;12.52;;;5.45;;
31238;SDS011;17871;31.584;74.450;2023-02-28T11:23:56;33.30;;;6.40;;
31238;SDS011;17871;31.584;74.450;2023-02-28T11:26:40;14.93;;;6.00;;
31238;SDS011;17871;31.584;74.450;2023-02-28T11:29:16;15.02;;;6.07;;
31238;SDS011;17871;31.584;74.450;2023-02-28T11:32:05;17.67;;;6.57;;
31238;SDS011;17871;31.584;74.450;2023-02-28T11:34:44;11.10;;;6.40;;
31238;SDS011;17871;31.584;74.450;2023-02-28T11:37:16;21.92;;;6.75;;
31238;SDS011;17871;31.584;74.450;2023-02-28T11:39:47;21.58;;;7.10;;
31238;SDS011;17871;31.584;74.450;2023-02-28T11:42:23;20.92;;;6.88;;
31238;SDS011;17871;31.584;74.450;2023-02-28T11:45:12;17.92;;;6.82;;
31238;SDS011;17871;31.584;74.450;2023-02-28T11:50:42;16.25;;;6.47;;
31238;SDS011;17871;31.584;74.450;2023-02-28T12:05:15;24.00;;;6.60;;
31238;SDS011;17871;31.584;74.450;2023-02-28T12:10:59;13.63;;;5.93;;
31238;SDS011;17871;31.584;74.450;2023-02-28T12:14:03;17.33;;;6.07;;
31238;SDS011;17871;31.584;74.450;2023-02-28T12:22:15;32.67;;;9.13;;
31238;SDS011;17871;31.584;74.450;2023-02-28T12:27:38;32.53;;;10.77;;
31238;SDS011;17871;31.584;74.450;2023-02-28T12:30:46;33.25;;;10.18;;
31238;SDS011;17871;31.584;74.450;2023-02-28T12:33:11;36.60;;;10.00;;
31238;SDS011;17871;31.584;74.450;2023-02-28T12:35:46;32.58;;;10.07;;
31238;SDS011;17871;31.584;74.450;2023-02-28T12:38:20;36.28;;;10.15;;
31238;SDS011;17871;31.584;74.450;2023-02-28T12:40:54;20.33;;;9.30;;
31238;SDS011;17871;31.584;74.450;2023-02-28T12:43:33;26.33;;;11.02;;
31238;SDS011;17871;31.584;74.450;2023-02-28T12:46:14;21.13;;;9.85;;
31238;SDS011;17871;31.584;74.450;2023-02-28T12:48:56;28.17;;;10.90;;
31238;SDS011;17871;31.584;74.450;2023-02-28T12:51:27;47.75;;;11.95;;
31238;SDS011;17871;31.584;74.450;2023-02-28T13:05:39;24.40;;;10.90;;
31238;SDS011;17871;31.584;74.450;2023-02-28T13:11:33;29.90;;;9.73;;
31238;SDS011;17871;31.584;74.450;2023-02-28T13:22:19;39.28;;;10.38;;
31238;SDS011;17871;31.584;74.450;2023-02-28T13:28:11;33.10;;;11.05;;
31238;SDS011;17871;31.584;74.450;2023-02-28T13:33:36;40.92;;;12.48;;
31238;SDS011;17871;31.584;74.450;2023-02-28T13:38:58;44.53;;;12.32;;
31238;SDS011;17871;31.584;74.450;2023-02-28T13:44:09;35.00;;;14.85;;
31238;SDS011;17871;31.584;74.450;2023-02-28T13:49:19;42.03;;;17.33;;
31238;SDS011;17871;31.584;74.450;2023-02-28T14:01:14;61.22;;;25.30;;
31238;SDS011;17871;31.584;74.450;2023-02-28T14:06:29;61.17;;;24.58;;
31238;SDS011;17871;31.584;74.450;2023-02-28T14:11:46;61.60;;;24.08;;
31238;SDS011;17871;31.584;74.450;2023-02-28T14:17:06;57.33;;;25.90;;
31238;SDS011;17871;31.584;74.450;2023-02-28T14:19:45;70.68;;;28.10;;
31238;SDS011;17871;31.584;74.450;2023-02-28T14:28:14;54.75;;;24.45;;
31238;SDS011;17871;31.584;74.450;2023-02-28T14:33:31;59.80;;;20.60;;
31238;SDS011;17871;31.584;74.450;2023-02-28T14:39:00;63.40;;;26.73;;
31238;SDS011;17871;31.584;74.450;2023-02-28T14:41:36;73.65;;;29.08;;
31238;SDS011;17871;31.584;74.450;2023-02-28T14:46:42;67.88;;;27.55;;
31238;SDS011;17871;31.584;74.450;2023-02-28T14:49:17;55.65;;;23.67;;
31238;SDS011;17871;31.584;74.450;2023-02-28T14:52:15;51.28;;;21.08;;
31238;SDS011;17871;31.584;74.450;2023-02-28T14:54:52;51.45;;;20.48;;
31238;SDS011;17871;31.584;74.450;2023-02-28T14:57:28;44.65;;;19.48;;
31238;SDS011;17871;31.584;74.450;2023-02-28T15:00:16;51.83;;;18.73;;
31238;SDS011;17871;31.584;74.450;2023-02-28T15:02:51;37.92;;;18.45;;
31238;SDS011;17871;31.584;74.450;2023-02-28T15:05:31;36.33;;;16.63;;
31238;SDS011;17871;31.584;74.450;2023-02-28T15:10:33;43.88;;;19.63;;
31238;SDS011;17871;31.584;74.450;2023-02-28T15:13:07;61.55;;;25.88;;
31238;SDS011;17871;31.584;74.450;2023-02-28T15:15:42;61.40;;;29.88;;
31238;SDS011;17871;31.584;74.450;2023-02-28T15:18:49;74.72;;;32.45;;
31238;SDS011;17871;31.584;74.450;2023-02-28T15:21:35;99.40;;;38.70;;
31238;SDS011;17871;31.584;74.450;2023-02-28T15:26:46;86.25;;;35.30;;
31238;SDS011;17871;31.584;74.450;2023-02-28T15:29:20;91.78;;;33.42;;
31238;SDS011;17871;31.584;74.450;2023-02-28T15:31:56;77.15;;;33.20;;
31238;SDS011;17871;31.584;74.450;2023-02-28T15:34:33;79.03;;;33.63;;
31238;SDS011;17871;31.584;74.450;2023-02-28T15:40:15;91.53;;;38.22;;
31238;SDS011;17871;31.584;74.450;2023-02-28T15:43:17;102.50;;;40.22;;
31238;SDS011;17871;31.584;74.450;2023-02-28T15:46:08;94.32;;;36.67;;
31238;SDS011;17871;31.584;74.450;2023-02-28T15:48:44;125.35;;;46.67;;
31238;SDS011;17871;31.584;74.450;2023-02-28T15:51:23;170.73;;;57.40;;
31238;SDS011;17871;31.584;74.450;2023-02-28T15:54:08;137.18;;;50.70;;
31238;SDS011;17871;31.584;74.450;2023-02-28T15:56:44;154.27;;;56.20;;
31238;SDS011;17871;31.584;74.450;2023-02-28T15:59:19;109.55;;;44.67;;
31238;SDS011;17871;31.584;74.450;2023-02-28T16:04:54;39.85;;;18.27;;
31238;SDS011;17871;31.584;74.450;2023-02-28T16:07:41;29.00;;;14.00;;
31238;SDS011;17871;31.584;74.450;2023-02-28T16:10:12;37.42;;;15.52;;
31238;SDS011;17871;31.584;74.450;2023-02-28T16:12:44;35.15;;;13.95;;
31238;SDS011;17871;31.584;74.450;2023-02-28T16:15:26;28.67;;;14.57;;
31238;SDS011;17871;31.584;74.450;2023-02-28T16:17:57;31.35;;;13.60;;
31238;SDS011;17871;31.584;74.450;2023-02-28T16:20:27;33.13;;;14.00;;
31238;SDS011;17871;31.584;74.450;2023-02-28T16:25:39;37.80;;;17.00;;
31238;SDS011;17871;31.584;74.450;2023-02-28T16:28:23;34.30;;;15.55;;
31238;SDS011;17871;31.584;74.450;2023-02-28T16:31:00;39.05;;;18.25;;
31238;SDS011;17871;31.584;74.450;2023-02-28T16:33:33;38.70;;;17.65;;
31238;SDS011;17871;31.584;74.450;2023-02-28T16:36:02;50.20;;;19.83;;
31238;SDS011;17871;31.584;74.450;2023-02-28T16:38:31;47.92;;;23.60;;
31238;SDS011;17871;31.584;74.450;2023-02-28T16:41:02;70.20;;;29.77;;
31238;SDS011;17871;31.584;74.450;2023-02-28T16:43:30;78.28;;;35.75;;
31238;SDS011;17871;31.584;74.450;2023-02-28T16:46:00;137.95;;;50.60;;
31238;SDS011;17871;31.584;74.450;2023-02-28T16:48:31;160.95;;;63.35;;
31238;SDS011;17871;31.584;74.450;2023-02-28T16:51:00;151.38;;;57.60;;
31238;SDS011;17871;31.584;74.450;2023-02-28T16:53:32;153.80;;;59.07;;
31238;SDS011;17871;31.584;74.450;2023-02-28T16:56:01;159.63;;;59.50;;
31238;SDS011;17871;31.584;74.450;2023-02-28T16:58:30;150.07;;;56.00;;
31238;SDS011;17871;31.584;74.450;2023-02-28T17:00:59;144.95;;;57.78;;
31238;SDS011;17871;31.584;74.450;2023-02-28T17:03:28;133.68;;;58.45;;
31238;SDS011;17871;31.584;74.450;2023-02-28T17:06:00;149.90;;;58.45;;
31238;SDS011;17871;31.584;74.450;2023-02-28T17:08:29;158.25;;;55.90;;
31238;SDS011;17871;31.584;74.450;2023-02-28T17:11:00;131.23;;;50.33;;
31238;SDS011;17871;31.584;74.450;2023-02-28T17:13:30;135.40;;;53.63;;
31238;SDS011;17871;31.584;74.450;2023-02-28T17:16:02;132.57;;;50.70;;
31238;SDS011;17871;31.584;74.450;2023-02-28T17:18:31;108.03;;;47.03;;
31238;SDS011;17871;31.584;74.450;2023-02-28T17:21:02;85.05;;;36.58;;